EZY1759 EGGD-LEAL
Flight info
| Callsign | EZY1759 |
|---|---|
| Flight time | 2h 11m |
| Altitude | 35000 |
| Route | EXMOR N40 SIDHO N862 TONQU DCT MANIG DCT BADUR DCT KORER UN26 UVUDO UN862 UTISO DCT OSMOB DCT TBO DCT PERDU DCT POSSY DCT XIMPE DCT RIMES N860 VLC |
| Aircraft | A320/M-SDE3FGHIRWY/LB1 |
Departure
| Time | 2026-05-04 13:31 |
|---|---|
| Airport | Bristol Airport (EGGD) |
Arrival
| Time | 2026-05-04 15:43 |
|---|---|
| Airport | Alicante-Elche Miguel Hernández Airport (LEAL) |
| Time | Latitude | Longitude | Altitude | Speed | Heading |
|---|---|---|---|---|---|
| 2026-05-04 13:17 | 51.38481 | -2.72117 | 617 ft | 0 kts | 266° |
| 2026-05-04 13:23 | 51.38482 | -2.72085 | 629 ft | 4 kts | 262° |
| 2026-05-04 13:23 | 51.38488 | -2.72044 | 627 ft | 4 kts | 237° |
| 2026-05-04 13:24 | 51.38504 | -2.72024 | 629 ft | 1 kts | 176° |
| 2026-05-04 13:24 | 51.38505 | -2.72024 | 629 ft | 0 kts | 176° |
| 2026-05-04 13:26 | 51.38481 | -2.72022 | 626 ft | 13 kts | 176° |
| 2026-05-04 13:26 | 51.38424 | -2.72108 | 622 ft | 12 kts | 262° |
| 2026-05-04 13:27 | 51.38421 | -2.72231 | 616 ft | 10 kts | 269° |
| 2026-05-04 13:27 | 51.38419 | -2.72338 | 616 ft | 9 kts | 269° |
| 2026-05-04 13:27 | 51.38416 | -2.72425 | 616 ft | 7 kts | 263° |
| 2026-05-04 13:27 | 51.38409 | -2.72498 | 622 ft | 8 kts | 261° |
| 2026-05-04 13:28 | 51.38405 | -2.72612 | 617 ft | 11 kts | 271° |
| 2026-05-04 13:28 | 51.38409 | -2.72743 | 627 ft | 12 kts | 271° |
| 2026-05-04 13:28 | 51.38400 | -2.72883 | 619 ft | 13 kts | 265° |
| 2026-05-04 13:28 | 51.38395 | -2.73033 | 622 ft | 14 kts | 264° |
| 2026-05-04 13:29 | 51.38380 | -2.73186 | 627 ft | 13 kts | 263° |
| 2026-05-04 13:29 | 51.38358 | -2.73309 | 635 ft | 10 kts | 235° |
| 2026-05-04 13:29 | 51.38304 | -2.73343 | 623 ft | 7 kts | 183° |
| 2026-05-04 13:29 | 51.38261 | -2.73340 | 624 ft | 5 kts | 174° |
| 2026-05-04 13:30 | 51.38235 | -2.73334 | 624 ft | 3 kts | 169° |
| 2026-05-04 13:30 | 51.38221 | -2.73320 | 632 ft | 1 kts | 138° |
| 2026-05-04 13:30 | 51.38220 | -2.73318 | 632 ft | 0 kts | 129° |
| 2026-05-04 13:30 | 51.38214 | -2.73293 | 627 ft | 3 kts | 97° |
| 2026-05-04 13:31 | 51.38215 | -2.73288 | 628 ft | 0 kts | 86° |
| 2026-05-04 13:31 | 51.38244 | -2.72848 | 627 ft | 83 kts | 81° |
| 2026-05-04 13:31 | 51.38319 | -2.71546 | 690 ft | 144 kts | 81° |
| 2026-05-04 13:31 | 51.38430 | -2.69960 | 1501 ft | 142 kts | 80° |
| 2026-05-04 13:32 | 51.38555 | -2.68316 | 2148 ft | 159 kts | 82° |
| 2026-05-04 13:32 | 51.38621 | -2.66412 | 2733 ft | 183 kts | 88° |
| 2026-05-04 13:32 | 51.38647 | -2.64268 | 3382 ft | 199 kts | 89° |
| 2026-05-04 13:32 | 51.38676 | -2.62025 | 4254 ft | 204 kts | 89° |
| 2026-05-04 13:33 | 51.38715 | -2.59695 | 5040 ft | 218 kts | 89° |
| 2026-05-04 13:33 | 51.38734 | -2.57143 | 5610 ft | 240 kts | 97° |
| 2026-05-04 13:33 | 51.38207 | -2.54499 | 5971 ft | 261 kts | 121° |
| 2026-05-04 13:33 | 51.36957 | -2.52386 | 6014 ft | 265 kts | 148° |
| 2026-05-04 13:34 | 51.35233 | -2.51401 | 6006 ft | 266 kts | 174° |
| 2026-05-04 13:34 | 51.33396 | -2.51754 | 6008 ft | 269 kts | 200° |
| 2026-05-04 13:34 | 51.31847 | -2.53404 | 6006 ft | 272 kts | 227° |
| 2026-05-04 13:34 | 51.30935 | -2.56045 | 6012 ft | 275 kts | 255° |
| 2026-05-04 13:35 | 51.30726 | -2.59051 | 6020 ft | 278 kts | 264° |
| 2026-05-04 13:35 | 51.29001 | -2.64445 | 7545 ft | 278 kts | 217° |
| 2026-05-04 13:35 | 51.27337 | -2.65984 | 8434 ft | 277 kts | 205° |
| 2026-05-04 13:36 | 51.25591 | -2.67310 | 9327 ft | 278 kts | 204° |
| 2026-05-04 13:36 | 51.23818 | -2.68629 | 9850 ft | 282 kts | 204° |
| 2026-05-04 13:36 | 51.22038 | -2.69946 | 10025 ft | 286 kts | 204° |
| 2026-05-04 13:36 | 51.20179 | -2.71322 | 10478 ft | 301 kts | 204° |
| 2026-05-04 13:37 | 51.18205 | -2.72790 | 10701 ft | 324 kts | 204° |
| 2026-05-04 13:37 | 51.16105 | -2.74358 | 11095 ft | 339 kts | 204° |
| 2026-05-04 13:37 | 51.13953 | -2.75966 | 11770 ft | 344 kts | 204° |
| 2026-05-04 13:37 | 51.11776 | -2.77590 | 12483 ft | 347 kts | 204° |
| 2026-05-04 13:38 | 51.09576 | -2.79231 | 13210 ft | 351 kts | 204° |
| 2026-05-04 13:38 | 51.07352 | -2.80888 | 13913 ft | 354 kts | 204° |
| 2026-05-04 13:38 | 51.05107 | -2.82559 | 14549 ft | 357 kts | 204° |
| 2026-05-04 13:38 | 51.02875 | -2.84219 | 15169 ft | 360 kts | 204° |
| 2026-05-04 13:39 | 51.00594 | -2.85916 | 15781 ft | 364 kts | 204° |
| 2026-05-04 13:39 | 50.98294 | -2.87628 | 16399 ft | 367 kts | 204° |
| 2026-05-04 13:39 | 50.95973 | -2.89351 | 17011 ft | 370 kts | 204° |
| 2026-05-04 13:39 | 50.93633 | -2.91081 | 17604 ft | 373 kts | 204° |
| 2026-05-04 13:40 | 50.91270 | -2.92823 | 18194 ft | 376 kts | 204° |
| 2026-05-04 13:40 | 50.88885 | -2.94583 | 18712 ft | 379 kts | 203° |
| 2026-05-04 13:40 | 50.86484 | -2.96354 | 19224 ft | 381 kts | 204° |
| 2026-05-04 13:40 | 50.84072 | -2.98135 | 19748 ft | 383 kts | 204° |
| 2026-05-04 13:41 | 50.81646 | -2.99925 | 20283 ft | 385 kts | 204° |
| 2026-05-04 13:41 | 50.79210 | -3.01717 | 20801 ft | 387 kts | 204° |
| 2026-05-04 13:41 | 50.76757 | -3.03519 | 21319 ft | 389 kts | 204° |
| 2026-05-04 13:42 | 50.71818 | -3.07131 | 22337 ft | 392 kts | 204° |
| 2026-05-04 13:42 | 50.69362 | -3.08929 | 22838 ft | 394 kts | 204° |
| 2026-05-04 13:42 | 50.66872 | -3.10752 | 23345 ft | 395 kts | 204° |
| 2026-05-04 13:42 | 50.64370 | -3.12576 | 23796 ft | 396 kts | 204° |
| 2026-05-04 13:43 | 50.61859 | -3.14402 | 24200 ft | 398 kts | 204° |
| 2026-05-04 13:43 | 50.59339 | -3.16233 | 24587 ft | 399 kts | 204° |
| 2026-05-04 13:43 | 50.56811 | -3.18068 | 24960 ft | 401 kts | 203° |
| 2026-05-04 13:43 | 50.54270 | -3.19906 | 25318 ft | 403 kts | 203° |
| 2026-05-04 13:44 | 50.51715 | -3.21753 | 25684 ft | 405 kts | 203° |
| 2026-05-04 13:44 | 50.49145 | -3.23612 | 26050 ft | 406 kts | 203° |
| 2026-05-04 13:44 | 50.46567 | -3.25474 | 26389 ft | 409 kts | 203° |
| 2026-05-04 13:44 | 50.43979 | -3.27340 | 26726 ft | 411 kts | 203° |
| 2026-05-04 13:45 | 50.41390 | -3.29135 | 27055 ft | 412 kts | 199° |
| 2026-05-04 13:45 | 50.38632 | -3.30388 | 27376 ft | 413 kts | 190° |
| 2026-05-04 13:45 | 50.35769 | -3.30912 | 27693 ft | 414 kts | 181° |
| 2026-05-04 13:45 | 50.32876 | -3.30750 | 27999 ft | 416 kts | 176° |
| 2026-05-04 13:46 | 50.29974 | -3.30475 | 28306 ft | 418 kts | 176° |
| 2026-05-04 13:46 | 50.27064 | -3.30206 | 28609 ft | 420 kts | 176° |
| 2026-05-04 13:46 | 50.24176 | -3.29947 | 28900 ft | 422 kts | 177° |
| 2026-05-04 13:46 | 50.21242 | -3.29690 | 29195 ft | 423 kts | 177° |
| 2026-05-04 13:47 | 50.18289 | -3.29434 | 29480 ft | 425 kts | 177° |
| 2026-05-04 13:47 | 50.15323 | -3.29176 | 29832 ft | 425 kts | 176° |
| 2026-05-04 13:47 | 50.12376 | -3.28917 | 30225 ft | 424 kts | 176° |
| 2026-05-04 13:47 | 50.09432 | -3.28657 | 30549 ft | 424 kts | 176° |
| 2026-05-04 13:48 | 50.06480 | -3.28394 | 30839 ft | 424 kts | 176° |
| 2026-05-04 13:48 | 50.03531 | -3.28133 | 31117 ft | 425 kts | 176° |
| 2026-05-04 13:48 | 50.00577 | -3.27871 | 31402 ft | 425 kts | 176° |
| 2026-05-04 13:48 | 49.97619 | -3.27613 | 31676 ft | 426 kts | 176° |
| 2026-05-04 13:49 | 49.94652 | -3.27355 | 31950 ft | 427 kts | 176° |
| 2026-05-04 13:49 | 49.91723 | -3.27101 | 32219 ft | 428 kts | 176° |
| 2026-05-04 13:49 | 49.88748 | -3.26839 | 32496 ft | 428 kts | 176° |
| 2026-05-04 13:49 | 49.85767 | -3.26575 | 32774 ft | 429 kts | 176° |
| 2026-05-04 13:50 | 49.82784 | -3.26311 | 33048 ft | 430 kts | 176° |
| 2026-05-04 13:50 | 49.79794 | -3.26045 | 33318 ft | 430 kts | 176° |
| 2026-05-04 13:50 | 49.76827 | -3.25447 | 33585 ft | 431 kts | 169° |
| 2026-05-04 13:50 | 49.73874 | -3.24582 | 33854 ft | 432 kts | 169° |
| 2026-05-04 13:51 | 49.70922 | -3.23714 | 34111 ft | 432 kts | 169° |
| 2026-05-04 13:51 | 49.67960 | -3.22840 | 34353 ft | 433 kts | 169° |
| 2026-05-04 13:51 | 49.65004 | -3.21971 | 34602 ft | 433 kts | 169° |
| 2026-05-04 13:51 | 49.62049 | -3.21108 | 34844 ft | 433 kts | 169° |
| 2026-05-04 13:52 | 49.56110 | -3.19381 | 35021 ft | 435 kts | 169° |
| 2026-05-04 13:52 | 49.53133 | -3.18516 | 35015 ft | 435 kts | 169° |
| 2026-05-04 13:53 | 49.47190 | -3.16791 | 35017 ft | 434 kts | 170° |
| 2026-05-04 13:53 | 49.41249 | -3.15088 | 35015 ft | 434 kts | 170° |
| 2026-05-04 13:54 | 49.32371 | -3.12529 | 35016 ft | 434 kts | 169° |
| 2026-05-04 13:55 | 49.23466 | -3.09970 | 35013 ft | 434 kts | 169° |
| 2026-05-04 13:55 | 49.14569 | -3.07419 | 35009 ft | 433 kts | 170° |
| 2026-05-04 13:56 | 49.08640 | -3.05731 | 35005 ft | 433 kts | 170° |
| 2026-05-04 13:57 | 48.99734 | -3.03202 | 35000 ft | 433 kts | 170° |
| 2026-05-04 13:58 | 48.87909 | -2.99852 | 34997 ft | 434 kts | 170° |
| 2026-05-04 13:58 | 48.78984 | -2.97336 | 34997 ft | 434 kts | 170° |
| 2026-05-04 13:59 | 48.73044 | -2.95667 | 34991 ft | 434 kts | 170° |
| 2026-05-04 14:00 | 48.64295 | -2.92070 | 34991 ft | 435 kts | 164° |
| 2026-05-04 14:00 | 48.55609 | -2.88190 | 34989 ft | 436 kts | 164° |
| 2026-05-04 14:01 | 48.49789 | -2.85607 | 34999 ft | 436 kts | 164° |
| 2026-05-04 14:02 | 48.41056 | -2.81734 | 34995 ft | 436 kts | 164° |
| 2026-05-04 14:02 | 48.35234 | -2.79152 | 34990 ft | 436 kts | 164° |
| 2026-05-04 14:03 | 48.29415 | -2.76585 | 34988 ft | 435 kts | 165° |
| 2026-05-04 14:03 | 48.23604 | -2.74039 | 34985 ft | 435 kts | 165° |
| 2026-05-04 14:04 | 48.14914 | -2.70220 | 34981 ft | 435 kts | 165° |
| 2026-05-04 14:04 | 48.09091 | -2.67675 | 34980 ft | 435 kts | 165° |
| 2026-05-04 14:05 | 48.00368 | -2.63867 | 34974 ft | 435 kts | 165° |
| 2026-05-04 14:06 | 47.94590 | -2.61361 | 34972 ft | 434 kts | 165° |
| 2026-05-04 14:06 | 47.88790 | -2.58844 | 34968 ft | 434 kts | 165° |
| 2026-05-04 14:07 | 47.82986 | -2.56324 | 34969 ft | 434 kts | 165° |
| 2026-05-04 14:07 | 47.77181 | -2.53826 | 34968 ft | 434 kts | 165° |
| 2026-05-04 14:08 | 47.72361 | -2.51755 | 34968 ft | 434 kts | 165° |
| 2026-05-04 14:08 | 47.66577 | -2.49204 | 34966 ft | 433 kts | 163° |
| 2026-05-04 14:09 | 47.58041 | -2.44696 | 34965 ft | 433 kts | 161° |
| 2026-05-04 14:10 | 47.49542 | -2.40111 | 34964 ft | 433 kts | 162° |
| 2026-05-04 14:10 | 47.43899 | -2.37169 | 34965 ft | 432 kts | 162° |
| 2026-05-04 14:11 | 47.38210 | -2.34228 | 34970 ft | 432 kts | 162° |
| 2026-05-04 14:11 | 47.29703 | -2.29820 | 34976 ft | 432 kts | 162° |
| 2026-05-04 14:12 | 47.24039 | -2.26879 | 34978 ft | 431 kts | 162° |
| 2026-05-04 14:13 | 47.15594 | -2.22514 | 34977 ft | 430 kts | 162° |
| 2026-05-04 14:13 | 47.09941 | -2.19605 | 34980 ft | 430 kts | 162° |
| 2026-05-04 14:14 | 47.04286 | -2.16701 | 34979 ft | 429 kts | 162° |
| 2026-05-04 14:14 | 46.95826 | -2.12371 | 34975 ft | 429 kts | 162° |
| 2026-05-04 14:15 | 46.84664 | -2.06316 | 34964 ft | 429 kts | 158° |
| 2026-05-04 14:16 | 46.76479 | -2.00970 | 34960 ft | 430 kts | 157° |
| 2026-05-04 14:17 | 46.68245 | -1.95726 | 34955 ft | 430 kts | 158° |
| 2026-05-04 14:18 | 46.60008 | -1.90633 | 34950 ft | 431 kts | 159° |
| 2026-05-04 14:19 | 46.49007 | -1.83593 | 34949 ft | 434 kts | 152° |
| 2026-05-04 14:19 | 46.43783 | -1.79165 | 34956 ft | 435 kts | 152° |
| 2026-05-04 14:20 | 46.38583 | -1.74782 | 34960 ft | 435 kts | 152° |
| 2026-05-04 14:20 | 46.33346 | -1.70386 | 34963 ft | 435 kts | 152° |
| 2026-05-04 14:21 | 46.25491 | -1.63793 | 34970 ft | 435 kts | 152° |
| 2026-05-04 14:21 | 46.20240 | -1.59412 | 34974 ft | 435 kts | 153° |
| 2026-05-04 14:22 | 46.15040 | -1.55069 | 34972 ft | 433 kts | 153° |
| 2026-05-04 14:22 | 46.09816 | -1.50716 | 34976 ft | 433 kts | 153° |
| 2026-05-04 14:23 | 46.01996 | -1.44231 | 34971 ft | 431 kts | 153° |
| 2026-05-04 14:24 | 45.96793 | -1.39932 | 34972 ft | 431 kts | 153° |
| 2026-05-04 14:24 | 45.91590 | -1.35638 | 34974 ft | 430 kts | 153° |
| 2026-05-04 14:25 | 45.86400 | -1.31361 | 34972 ft | 429 kts | 153° |
| 2026-05-04 14:25 | 45.78669 | -1.25005 | 34970 ft | 428 kts | 153° |
| 2026-05-04 14:26 | 45.73495 | -1.20761 | 34972 ft | 428 kts | 153° |
| 2026-05-04 14:26 | 45.68323 | -1.16537 | 34968 ft | 428 kts | 153° |
| 2026-05-04 14:27 | 45.63160 | -1.12317 | 34967 ft | 427 kts | 154° |
| 2026-05-04 14:27 | 45.58007 | -1.08118 | 34951 ft | 426 kts | 154° |
| 2026-05-04 14:28 | 45.52855 | -1.03929 | 34952 ft | 426 kts | 154° |
| 2026-05-04 14:28 | 45.47696 | -0.99749 | 34947 ft | 426 kts | 154° |
| 2026-05-04 14:29 | 45.37383 | -0.91412 | 34933 ft | 426 kts | 154° |
| 2026-05-04 14:30 | 45.32254 | -0.87288 | 34930 ft | 426 kts | 154° |
| 2026-05-04 14:31 | 45.24513 | -0.81055 | 34929 ft | 426 kts | 154° |
| 2026-05-04 14:32 | 45.14182 | -0.72794 | 34921 ft | 426 kts | 154° |
| 2026-05-04 14:32 | 45.09015 | -0.68675 | 34917 ft | 426 kts | 154° |
| 2026-05-04 14:33 | 45.03854 | -0.64550 | 34924 ft | 426 kts | 154° |
| 2026-05-04 14:33 | 44.98687 | -0.60439 | 34921 ft | 425 kts | 155° |
| 2026-05-04 14:34 | 44.93523 | -0.56356 | 34927 ft | 425 kts | 155° |
| 2026-05-04 14:34 | 44.88356 | -0.52277 | 34928 ft | 425 kts | 155° |
| 2026-05-04 14:35 | 44.83208 | -0.48294 | 34922 ft | 422 kts | 161° |
| 2026-05-04 14:35 | 44.77656 | -0.45775 | 34920 ft | 418 kts | 167° |
| 2026-05-04 14:36 | 44.72069 | -0.43395 | 34918 ft | 419 kts | 167° |
| 2026-05-04 14:36 | 44.66492 | -0.41015 | 34914 ft | 419 kts | 166° |
| 2026-05-04 14:37 | 44.60954 | -0.38644 | 34919 ft | 419 kts | 167° |
| 2026-05-04 14:37 | 44.55378 | -0.36267 | 34913 ft | 418 kts | 167° |
| 2026-05-04 14:38 | 44.49801 | -0.33903 | 34915 ft | 418 kts | 167° |
| 2026-05-04 14:38 | 44.44221 | -0.31538 | 34917 ft | 418 kts | 167° |
| 2026-05-04 14:39 | 44.38642 | -0.29174 | 34920 ft | 418 kts | 167° |
| 2026-05-04 14:39 | 44.33099 | -0.26828 | 34917 ft | 418 kts | 167° |
| 2026-05-04 14:40 | 44.24741 | -0.23303 | 34921 ft | 418 kts | 167° |
| 2026-05-04 14:40 | 44.19171 | -0.20966 | 34926 ft | 418 kts | 167° |
| 2026-05-04 14:41 | 44.13601 | -0.18634 | 34939 ft | 418 kts | 167° |
| 2026-05-04 14:42 | 44.02481 | -0.13979 | 34942 ft | 417 kts | 167° |
| 2026-05-04 14:42 | 43.96959 | -0.11680 | 34936 ft | 417 kts | 167° |
| 2026-05-04 14:43 | 43.91401 | -0.09370 | 34937 ft | 416 kts | 167° |
| 2026-05-04 14:43 | 43.85843 | -0.07063 | 34938 ft | 416 kts | 167° |
| 2026-05-04 14:44 | 43.80298 | -0.04759 | 34935 ft | 416 kts | 168° |
| 2026-05-04 14:44 | 43.74757 | -0.02463 | 34935 ft | 415 kts | 168° |
| 2026-05-04 14:45 | 43.69218 | -0.00175 | 34935 ft | 415 kts | 168° |
| 2026-05-04 14:45 | 43.63682 | 0.02102 | 34941 ft | 415 kts | 168° |
| 2026-05-04 14:46 | 43.58179 | 0.04372 | 34939 ft | 415 kts | 168° |
| 2026-05-04 14:46 | 43.52637 | 0.06649 | 34940 ft | 415 kts | 168° |
| 2026-05-04 14:47 | 43.47097 | 0.08911 | 34951 ft | 414 kts | 168° |
| 2026-05-04 14:47 | 43.41600 | 0.11160 | 34951 ft | 414 kts | 168° |
| 2026-05-04 14:48 | 43.36080 | 0.13414 | 34955 ft | 414 kts | 168° |
| 2026-05-04 14:48 | 43.30476 | 0.14615 | 34955 ft | 404 kts | 184° |
| 2026-05-04 14:49 | 43.24852 | 0.14644 | 34954 ft | 404 kts | 183° |
| 2026-05-04 14:49 | 43.19256 | 0.14704 | 34954 ft | 404 kts | 183° |
| 2026-05-04 14:50 | 43.13641 | 0.14762 | 34953 ft | 403 kts | 183° |
| 2026-05-04 14:50 | 43.08025 | 0.14813 | 34950 ft | 403 kts | 183° |
| 2026-05-04 14:51 | 43.02413 | 0.14857 | 34944 ft | 403 kts | 183° |
| 2026-05-04 14:51 | 42.96798 | 0.14909 | 34938 ft | 403 kts | 184° |
| 2026-05-04 14:52 | 42.91184 | 0.14962 | 34932 ft | 403 kts | 184° |
| 2026-05-04 14:52 | 42.85607 | 0.15005 | 34921 ft | 403 kts | 184° |
| 2026-05-04 14:53 | 42.79994 | 0.15051 | 34923 ft | 403 kts | 184° |
| 2026-05-04 14:53 | 42.74383 | 0.15105 | 34916 ft | 403 kts | 184° |
| 2026-05-04 14:54 | 42.68774 | 0.15162 | 34908 ft | 403 kts | 184° |
| 2026-05-04 14:54 | 42.63158 | 0.15218 | 34911 ft | 404 kts | 184° |
| 2026-05-04 14:55 | 42.58449 | 0.15261 | 34906 ft | 403 kts | 184° |
| 2026-05-04 14:55 | 42.52847 | 0.15308 | 34895 ft | 402 kts | 184° |
| 2026-05-04 14:56 | 42.47276 | 0.15355 | 34895 ft | 403 kts | 184° |
| 2026-05-04 14:56 | 42.41672 | 0.15401 | 34892 ft | 403 kts | 184° |
| 2026-05-04 14:57 | 42.36067 | 0.15449 | 34888 ft | 403 kts | 184° |
| 2026-05-04 14:57 | 42.30457 | 0.15501 | 34882 ft | 403 kts | 184° |
| 2026-05-04 14:58 | 42.24845 | 0.15553 | 34882 ft | 403 kts | 184° |
| 2026-05-04 14:58 | 42.19238 | 0.15604 | 34884 ft | 403 kts | 185° |
| 2026-05-04 14:59 | 42.13663 | 0.15656 | 34880 ft | 403 kts | 185° |
| 2026-05-04 15:00 | 42.05263 | 0.15604 | 34879 ft | 399 kts | 191° |
| 2026-05-04 15:00 | 41.99751 | 0.14766 | 34872 ft | 399 kts | 191° |
| 2026-05-04 15:01 | 41.91482 | 0.13528 | 34876 ft | 399 kts | 191° |
| 2026-05-04 15:01 | 41.85961 | 0.12698 | 34883 ft | 398 kts | 191° |
| 2026-05-04 15:02 | 41.80450 | 0.11871 | 34875 ft | 398 kts | 191° |
| 2026-05-04 15:02 | 41.74937 | 0.11059 | 34876 ft | 398 kts | 191° |
| 2026-05-04 15:03 | 41.70485 | 0.10392 | 34883 ft | 398 kts | 191° |
| 2026-05-04 15:03 | 41.64973 | 0.09562 | 34880 ft | 398 kts | 191° |
| 2026-05-04 15:04 | 41.59527 | 0.08757 | 34874 ft | 399 kts | 191° |
| 2026-05-04 15:04 | 41.54009 | 0.07942 | 34874 ft | 399 kts | 191° |
| 2026-05-04 15:05 | 41.48490 | 0.07129 | 34875 ft | 399 kts | 191° |
| 2026-05-04 15:05 | 41.42953 | 0.06319 | 34875 ft | 399 kts | 192° |
| 2026-05-04 15:06 | 41.37467 | 0.05506 | 34874 ft | 399 kts | 192° |
| 2026-05-04 15:07 | 41.29164 | 0.04289 | 34866 ft | 400 kts | 192° |
| 2026-05-04 15:07 | 41.23631 | 0.03478 | 34867 ft | 400 kts | 192° |
| 2026-05-04 15:08 | 41.18079 | 0.02658 | 34865 ft | 400 kts | 192° |
| 2026-05-04 15:08 | 41.12575 | 0.01850 | 34864 ft | 401 kts | 192° |
| 2026-05-04 15:09 | 41.07024 | 0.01040 | 34864 ft | 401 kts | 192° |
| 2026-05-04 15:09 | 41.01472 | 0.00236 | 34867 ft | 401 kts | 192° |
| 2026-05-04 15:10 | 40.93125 | -0.00987 | 34865 ft | 402 kts | 192° |
| 2026-05-04 15:11 | 40.84807 | -0.02195 | 34867 ft | 403 kts | 192° |
| 2026-05-04 15:11 | 40.79224 | -0.03001 | 34864 ft | 403 kts | 192° |
| 2026-05-04 15:12 | 40.73643 | -0.03808 | 34867 ft | 404 kts | 192° |
| 2026-05-04 15:12 | 40.68047 | -0.04616 | 34875 ft | 404 kts | 192° |
| 2026-05-04 15:13 | 40.62452 | -0.05430 | 34878 ft | 404 kts | 192° |
| 2026-05-04 15:13 | 40.56892 | -0.06241 | 34889 ft | 404 kts | 194° |
| 2026-05-04 15:14 | 40.51525 | -0.08081 | 34910 ft | 398 kts | 202° |
| 2026-05-04 15:14 | 40.46221 | -0.10188 | 34925 ft | 398 kts | 201° |
| 2026-05-04 15:15 | 40.40914 | -0.12283 | 34938 ft | 398 kts | 202° |
| 2026-05-04 15:15 | 40.35595 | -0.14381 | 34941 ft | 398 kts | 202° |
| 2026-05-04 15:16 | 40.27671 | -0.17509 | 34942 ft | 398 kts | 202° |
| 2026-05-04 15:17 | 40.19698 | -0.20645 | 34935 ft | 399 kts | 202° |
| 2026-05-04 15:17 | 40.11708 | -0.23778 | 34917 ft | 399 kts | 202° |
| 2026-05-04 15:18 | 40.06381 | -0.25869 | 34906 ft | 400 kts | 202° |
| 2026-05-04 15:19 | 39.98414 | -0.28981 | 34704 ft | 400 kts | 202° |
| 2026-05-04 15:19 | 39.95744 | -0.30021 | 34471 ft | 400 kts | 202° |
| 2026-05-04 15:19 | 39.90404 | -0.32098 | 33991 ft | 400 kts | 201° |
| 2026-05-04 15:20 | 39.87736 | -0.33134 | 33729 ft | 399 kts | 202° |
| 2026-05-04 15:20 | 39.85073 | -0.34169 | 33461 ft | 400 kts | 202° |
| 2026-05-04 15:20 | 39.82433 | -0.35198 | 33188 ft | 400 kts | 202° |
| 2026-05-04 15:20 | 39.79762 | -0.36241 | 32917 ft | 401 kts | 202° |
| 2026-05-04 15:21 | 39.77078 | -0.37289 | 32658 ft | 403 kts | 202° |
| 2026-05-04 15:21 | 39.74391 | -0.38335 | 32394 ft | 404 kts | 202° |
| 2026-05-04 15:21 | 39.68988 | -0.40427 | 31881 ft | 405 kts | 202° |
| 2026-05-04 15:22 | 39.66282 | -0.41468 | 31464 ft | 406 kts | 202° |
| 2026-05-04 15:22 | 39.63555 | -0.42522 | 30402 ft | 412 kts | 201° |
| 2026-05-04 15:22 | 39.58023 | -0.44663 | 28626 ft | 411 kts | 201° |
| 2026-05-04 15:23 | 39.55294 | -0.45713 | 27921 ft | 406 kts | 201° |
| 2026-05-04 15:23 | 39.52631 | -0.46736 | 27239 ft | 401 kts | 201° |
| 2026-05-04 15:23 | 39.49966 | -0.47757 | 26568 ft | 397 kts | 201° |
| 2026-05-04 15:23 | 39.47323 | -0.48763 | 25902 ft | 393 kts | 201° |
| 2026-05-04 15:24 | 39.42090 | -0.50658 | 24598 ft | 387 kts | 200° |
| 2026-05-04 15:24 | 39.36919 | -0.52469 | 23291 ft | 382 kts | 200° |
| 2026-05-04 15:25 | 39.34365 | -0.53364 | 22636 ft | 378 kts | 200° |
| 2026-05-04 15:25 | 39.31848 | -0.54249 | 22070 ft | 372 kts | 200° |
| 2026-05-04 15:25 | 39.29363 | -0.55127 | 21518 ft | 367 kts | 200° |
| 2026-05-04 15:26 | 39.24497 | -0.56856 | 20508 ft | 358 kts | 201° |
| 2026-05-04 15:26 | 39.22111 | -0.57709 | 20006 ft | 353 kts | 201° |
| 2026-05-04 15:26 | 39.17429 | -0.59375 | 19058 ft | 346 kts | 200° |
| 2026-05-04 15:27 | 39.15123 | -0.60188 | 18590 ft | 342 kts | 200° |
| 2026-05-04 15:27 | 39.10589 | -0.61788 | 17583 ft | 337 kts | 201° |
| 2026-05-04 15:28 | 39.06102 | -0.63380 | 16616 ft | 331 kts | 200° |
| 2026-05-04 15:28 | 39.03886 | -0.64167 | 16115 ft | 330 kts | 200° |
| 2026-05-04 15:28 | 38.99478 | -0.65724 | 15142 ft | 327 kts | 200° |
| 2026-05-04 15:29 | 38.97291 | -0.66496 | 14658 ft | 327 kts | 200° |
| 2026-05-04 15:30 | 38.88529 | -0.69581 | 12613 ft | 324 kts | 200° |
| 2026-05-04 15:30 | 38.82029 | -0.71867 | 11081 ft | 322 kts | 199° |
| 2026-05-04 15:31 | 38.77761 | -0.73359 | 10494 ft | 307 kts | 199° |
| 2026-05-04 15:31 | 38.75741 | -0.74060 | 10368 ft | 294 kts | 199° |
| 2026-05-04 15:32 | 38.70031 | -0.76053 | 10017 ft | 279 kts | 200° |
| 2026-05-04 15:32 | 38.66304 | -0.77364 | 9446 ft | 285 kts | 199° |
| 2026-05-04 15:33 | 38.62529 | -0.78685 | 8575 ft | 277 kts | 199° |
| 2026-05-04 15:34 | 38.57069 | -0.80582 | 7164 ft | 251 kts | 199° |
| 2026-05-04 15:34 | 38.55423 | -0.81148 | 6823 ft | 241 kts | 199° |
| 2026-05-04 15:34 | 38.52148 | -0.82100 | 6684 ft | 245 kts | 194° |
| 2026-05-04 15:35 | 38.48785 | -0.82853 | 5944 ft | 244 kts | 194° |
| 2026-05-04 15:35 | 38.47116 | -0.83221 | 5611 ft | 243 kts | 194° |
| 2026-05-04 15:35 | 38.45455 | -0.83587 | 5277 ft | 241 kts | 193° |
| 2026-05-04 15:36 | 38.42192 | -0.84308 | 4605 ft | 238 kts | 193° |
| 2026-05-04 15:36 | 38.40562 | -0.84671 | 4263 ft | 237 kts | 193° |
| 2026-05-04 15:36 | 38.38943 | -0.85032 | 4044 ft | 234 kts | 193° |
| 2026-05-04 15:37 | 38.37359 | -0.85386 | 3847 ft | 228 kts | 192° |
| 2026-05-04 15:37 | 38.35821 | -0.85730 | 3719 ft | 220 kts | 192° |
| 2026-05-04 15:37 | 38.34353 | -0.86057 | 3612 ft | 212 kts | 191° |
| 2026-05-04 15:37 | 38.32950 | -0.85855 | 3536 ft | 201 kts | 153° |
| 2026-05-04 15:38 | 38.32131 | -0.84528 | 3448 ft | 192 kts | 105° |
| 2026-05-04 15:38 | 38.31960 | -0.82891 | 3357 ft | 179 kts | 101° |
| 2026-05-04 15:38 | 38.31755 | -0.81387 | 3307 ft | 166 kts | 102° |
| 2026-05-04 15:38 | 38.31556 | -0.79952 | 3307 ft | 163 kts | 102° |
| 2026-05-04 15:39 | 38.31388 | -0.78739 | 3309 ft | 161 kts | 102° |
| 2026-05-04 15:39 | 38.31216 | -0.77488 | 3310 ft | 160 kts | 102° |
| 2026-05-04 15:39 | 38.30833 | -0.74712 | 3215 ft | 163 kts | 102° |
| 2026-05-04 15:40 | 38.30634 | -0.73264 | 2824 ft | 169 kts | 102° |
| 2026-05-04 15:40 | 38.30431 | -0.71789 | 2460 ft | 167 kts | 102° |
| 2026-05-04 15:40 | 38.30234 | -0.70357 | 2190 ft | 161 kts | 103° |
| 2026-05-04 15:40 | 38.30043 | -0.68975 | 1960 ft | 156 kts | 103° |
| 2026-05-04 15:41 | 38.29857 | -0.67627 | 1755 ft | 154 kts | 102° |
| 2026-05-04 15:41 | 38.29672 | -0.66294 | 1542 ft | 152 kts | 102° |
| 2026-05-04 15:41 | 38.29490 | -0.64976 | 1346 ft | 151 kts | 102° |
| 2026-05-04 15:41 | 38.29369 | -0.64106 | 1201 ft | 150 kts | 103° |
| 2026-05-04 15:42 | 38.29187 | -0.62789 | 1003 ft | 150 kts | 103° |
| 2026-05-04 15:42 | 38.29008 | -0.61497 | 791 ft | 147 kts | 104° |
| 2026-05-04 15:42 | 38.28827 | -0.60204 | 618 ft | 148 kts | 104° |
| 2026-05-04 15:42 | 38.28649 | -0.58921 | 417 ft | 146 kts | 103° |
| 2026-05-04 15:43 | 38.28473 | -0.57656 | 227 ft | 145 kts | 105° |
| 2026-05-04 15:43 | 38.28306 | -0.56437 | 123 ft | 132 kts | 100° |
| 2026-05-04 15:43 | 38.28199 | -0.55676 | 99 ft | 18 kts | 98° |
| 2026-05-04 15:43 | 38.28199 | -0.55662 | 99 ft | 1 kts | 87° |
| 2026-05-04 15:44 | 38.28216 | -0.55617 | 99 ft | 9 kts | 57° |
| 2026-05-04 15:44 | 38.28251 | -0.55543 | 96 ft | 11 kts | 67° |
| 2026-05-04 15:44 | 38.28274 | -0.55449 | 94 ft | 2 kts | 69° |
| 2026-05-04 15:44 | 38.28281 | -0.55422 | 92 ft | 12 kts | 73° |
| 2026-05-04 15:45 | 38.28329 | -0.55256 | 88 ft | 16 kts | 64° |
| 2026-05-04 15:45 | 38.28369 | -0.55179 | 88 ft | 7 kts | 45° |
| 2026-05-04 15:45 | 38.28405 | -0.55155 | 90 ft | 5 kts | 3° |
| 2026-05-04 15:45 | 38.28428 | -0.55170 | 91 ft | 3 kts | 317° |
| 2026-05-04 15:46 | 38.28438 | -0.55189 | 89 ft | 2 kts | 297° |
| 2026-05-04 15:46 | 38.28442 | -0.55210 | 88 ft | 2 kts | 281° |
| 2026-05-04 15:46 | 38.28444 | -0.55225 | 90 ft | 2 kts | 277° |
| 2026-05-04 15:46 | 38.28445 | -0.55239 | 88 ft | 1 kts | 276° |
| 2026-05-04 15:47 | 38.28446 | -0.55254 | 89 ft | 8 kts | 277° |
| 2026-05-04 15:47 | 38.28452 | -0.55315 | 90 ft | 4 kts | 278° |
| 2026-05-04 15:47 | 38.28455 | -0.55335 | 90 ft | 2 kts | 281° |
| 2026-05-04 15:47 | 38.28469 | -0.55356 | 91 ft | 4 kts | 328° |
| 2026-05-04 15:48 | 38.28493 | -0.55359 | 90 ft | 3 kts | 1° |
| 2026-05-04 15:48 | 38.28518 | -0.55353 | 89 ft | 4 kts | 7° |
| 2026-05-04 15:48 | 38.28542 | -0.55347 | 88 ft | 1 kts | 10° |
| 2026-05-04 15:49 | 38.28543 | -0.55347 | 88 ft | 0 kts | 10° |